createdAt,value
2022-12-03T10:54:24.792Z,16.23
2022-12-03T10:59:29.876Z,15.55
2022-12-03T11:04:33.160Z,16.45
2022-12-03T13:13:46.065Z,14.27
2022-12-03T13:19:03.026Z,14.77
2022-12-03T13:24:20.119Z,13.02
2022-12-03T13:29:21.918Z,12.98
2022-12-03T13:34:25.648Z,14.35
2022-12-03T13:39:30.501Z,13.98
2022-12-03T13:44:32.844Z,14.25
2022-12-03T13:49:34.671Z,14.87
2022-12-03T13:54:38.494Z,15.40
2022-12-03T13:59:40.307Z,14.25
2022-12-03T14:04:42.134Z,14.80
2022-12-03T14:09:43.918Z,14.88
2022-12-03T14:14:45.728Z,13.18
2022-12-03T14:19:47.519Z,13.30
2022-12-03T14:24:49.654Z,13.80
2022-12-03T14:29:52.104Z,13.10
2022-12-03T14:34:54.313Z,12.60
2022-12-03T14:39:56.459Z,14.73
2022-12-03T14:44:58.614Z,13.47
2022-12-03T14:50:00.420Z,12.15
2022-12-03T14:55:02.250Z,12.20
2022-12-03T15:00:04.943Z,12.38
2022-12-03T15:05:07.070Z,11.48
2022-12-03T15:10:09.047Z,11.82
2022-12-03T15:15:10.925Z,11.07
2022-12-03T15:20:12.920Z,10.27
2022-12-03T15:25:14.715Z,11.98
2022-12-03T15:30:16.707Z,11.52
2022-12-03T15:35:18.562Z,11.30
2022-12-03T15:40:20.384Z,11.00
2022-12-03T15:45:22.185Z,10.25
2022-12-03T15:50:24.006Z,10.32
2022-12-03T15:55:25.836Z,10.13
2022-12-03T16:00:28.691Z,11.02
2022-12-03T16:05:30.510Z,11.88
2022-12-03T16:10:32.307Z,12.02
2022-12-03T16:15:37.328Z,11.55
2022-12-03T16:20:39.202Z,10.82
2022-12-03T16:25:41.012Z,11.38
2022-12-03T16:30:42.894Z,9.23
2022-12-03T16:35:44.746Z,10.85
2022-12-03T16:40:46.519Z,9.60
2022-12-03T16:45:48.339Z,11.73
2022-12-03T16:50:50.156Z,8.98
2022-12-03T16:55:51.979Z,11.32
2022-12-03T17:00:53.790Z,10.60
2022-12-03T17:05:55.610Z,10.93
2022-12-03T17:10:57.673Z,11.40
2022-12-03T17:15:59.772Z,11.30
2022-12-03T17:21:01.629Z,11.38
2022-12-03T17:26:03.453Z,9.50
2022-12-03T17:31:05.460Z,11.75
2022-12-03T17:36:07.586Z,10.93
2022-12-03T17:41:09.389Z,11.68
2022-12-03T17:46:11.285Z,11.98
2022-12-03T17:51:13.166Z,12.45
2022-12-03T17:56:14.963Z,11.48
2022-12-03T18:01:16.887Z,13.13
2022-12-03T18:06:19.782Z,14.07
2022-12-03T18:11:21.593Z,13.02
2022-12-03T18:16:23.455Z,13.30
2022-12-03T18:21:26.375Z,13.27
2022-12-03T18:26:28.303Z,13.13
2022-12-03T18:31:30.165Z,14.15
2022-12-03T18:36:34.650Z,14.48
2022-12-03T18:41:36.481Z,14.43
2022-12-03T18:46:52.841Z,14.63
2022-12-03T18:51:59.366Z,14.48
2022-12-03T18:57:01.644Z,13.88
2022-12-03T19:02:04.055Z,15.27
2022-12-03T19:07:05.957Z,14.33
2022-12-03T19:12:14.401Z,14.88
2022-12-03T19:17:16.568Z,15.10
2022-12-03T19:22:18.392Z,14.88
2022-12-03T19:27:20.204Z,14.55
2022-12-03T19:32:22.181Z,17.70
2022-12-03T19:37:24.000Z,14.85
2022-12-03T19:42:25.840Z,14.70
2022-12-03T19:47:27.642Z,13.60
2022-12-03T19:52:29.480Z,14.95
2022-12-03T19:57:31.412Z,14.98
2022-12-03T20:02:33.307Z,14.02
2022-12-03T20:07:35.182Z,14.45
2022-12-03T20:12:37.082Z,14.65
2022-12-03T20:17:38.979Z,14.88
2022-12-03T20:22:40.792Z,15.38
2022-12-03T20:27:42.601Z,13.52
2022-12-03T20:32:45.602Z,14.13
2022-12-03T20:42:49.274Z,14.88
2022-12-03T20:47:51.135Z,16.80
2022-12-03T20:53:16.178Z,16.67
2022-12-03T20:58:14.761Z,16.30
2022-12-03T21:03:16.586Z,18.05
2022-12-03T21:08:33.009Z,15.63
2022-12-03T21:13:40.415Z,17.88
2022-12-03T21:18:42.686Z,16.55
2022-12-03T21:23:44.935Z,15.90
2022-12-03T21:28:47.756Z,18.20
2022-12-03T21:33:49.577Z,16.38
2022-12-03T21:38:51.463Z,17.20
2022-12-03T21:43:53.277Z,18.00
2022-12-03T21:48:55.129Z,16.67
2022-12-03T21:53:56.921Z,17.55
2022-12-03T21:58:58.782Z,16.30
2022-12-03T22:04:00.624Z,18.08
2022-12-03T22:09:02.469Z,18.63
2022-12-03T22:14:04.296Z,17.85
2022-12-03T22:19:06.144Z,17.23
2022-12-03T22:24:08.023Z,15.98
2022-12-03T22:29:10.514Z,16.02
2022-12-03T22:34:12.475Z,17.02
2022-12-03T22:39:14.266Z,17.83
2022-12-03T22:44:16.066Z,17.10
2022-12-03T22:49:17.877Z,17.77
2022-12-03T22:54:23.946Z,14.80
2022-12-03T22:59:26.191Z,17.02
2022-12-03T23:04:28.029Z,15.32
2022-12-03T23:09:29.867Z,16.20
2022-12-03T23:14:31.657Z,15.85
2022-12-03T23:19:33.445Z,15.85
2022-12-03T23:24:36.058Z,16.95
2022-12-03T23:29:37.875Z,16.42
2022-12-03T23:34:39.749Z,15.55
2022-12-03T23:39:41.617Z,16.15
2022-12-03T23:44:43.459Z,17.52
2022-12-03T23:49:45.262Z,15.75
2022-12-03T23:54:47.104Z,16.75
2022-12-03T23:59:49.064Z,16.80
